sensor_id;sensor_type;location;lat;lon;timestamp;temperature;humidity
67870;DHT22;54673;52.262;6.830;2024-03-02T00:01:04;7.40;99.90
67870;DHT22;54673;52.262;6.830;2024-03-02T00:03:29;7.40;99.90
67870;DHT22;54673;52.262;6.830;2024-03-02T00:05:55;7.40;99.90
67870;DHT22;54673;52.262;6.830;2024-03-02T00:08:25;7.40;99.90
67870;DHT22;54673;52.262;6.830;2024-03-02T00:11:00;7.40;99.90
67870;DHT22;54673;52.262;6.830;2024-03-02T00:13:29;7.40;99.90
67870;DHT22;54673;52.262;6.830;2024-03-02T00:15:56;8.40;99.90
67870;DHT22;54673;52.262;6.830;2024-03-02T00:20:53;7.30;99.90
67870;DHT22;54673;52.262;6.830;2024-03-02T00:23:20;7.40;99.90
67870;DHT22;54673;52.262;6.830;2024-03-02T00:33:22;7.30;99.90
67870;DHT22;54673;52.262;6.830;2024-03-02T00:35:49;7.30;99.90
67870;DHT22;54673;52.262;6.830;2024-03-02T00:38:15;7.30;99.90
67870;DHT22;54673;52.262;6.830;2024-03-02T00:40:42;7.20;99.90
67870;DHT22;54673;52.262;6.830;2024-03-02T00:43:39;7.30;99.90
67870;DHT22;54673;52.262;6.830;2024-03-02T00:46:06;7.20;99.90
67870;DHT22;54673;52.262;6.830;2024-03-02T00:48:32;7.30;99.90
67870;DHT22;54673;52.262;6.830;2024-03-02T00:51:01;7.20;99.90
67870;DHT22;54673;52.262;6.830;2024-03-02T00:53:29;7.20;99.90
67870;DHT22;54673;52.262;6.830;2024-03-02T00:55:55;7.20;99.90
67870;DHT22;54673;52.262;6.830;2024-03-02T00:58:21;7.20;99.90
67870;DHT22;54673;52.262;6.830;2024-03-02T01:00:46;7.20;99.90
67870;DHT22;54673;52.262;6.830;2024-03-02T01:03:12;7.20;99.90
67870;DHT22;54673;52.262;6.830;2024-03-02T01:05:41;7.20;99.90
67870;DHT22;54673;52.262;6.830;2024-03-02T01:08:08;7.20;99.90
67870;DHT22;54673;52.262;6.830;2024-03-02T01:10:34;7.20;99.90
67870;DHT22;54673;52.262;6.830;2024-03-02T01:12:59;7.80;99.90
67870;DHT22;54673;52.262;6.830;2024-03-02T01:15:25;7.20;99.90
67870;DHT22;54673;52.262;6.830;2024-03-02T01:17:51;8.30;99.90
67870;DHT22;54673;52.262;6.830;2024-03-02T01:20:16;7.20;99.90
67870;DHT22;54673;52.262;6.830;2024-03-02T01:22:42;7.20;99.90
67870;DHT22;54673;52.262;6.830;2024-03-02T01:25:08;7.20;99.90
67870;DHT22;54673;52.262;6.830;2024-03-02T01:27:34;7.20;99.90
67870;DHT22;54673;52.262;6.830;2024-03-02T01:30:00;7.20;99.90
67870;DHT22;54673;52.262;6.830;2024-03-02T01:32:25;7.10;99.90
67870;DHT22;54673;52.262;6.830;2024-03-02T01:34:51;7.10;99.90
67870;DHT22;54673;52.262;6.830;2024-03-02T01:37:16;7.10;99.90
67870;DHT22;54673;52.262;6.830;2024-03-02T01:39:42;7.10;99.90
67870;DHT22;54673;52.262;6.830;2024-03-02T01:42:08;7.10;99.90
67870;DHT22;54673;52.262;6.830;2024-03-02T01:44:33;7.10;99.90
67870;DHT22;54673;52.262;6.830;2024-03-02T01:46:59;7.10;99.90
67870;DHT22;54673;52.262;6.830;2024-03-02T01:49:24;7.10;99.90
67870;DHT22;54673;52.262;6.830;2024-03-02T01:51:50;7.00;99.90
67870;DHT22;54673;52.262;6.830;2024-03-02T01:54:16;7.10;99.90
67870;DHT22;54673;52.262;6.830;2024-03-02T01:56:41;7.10;99.90
67870;DHT22;54673;52.262;6.830;2024-03-02T01:59:07;7.10;99.90
67870;DHT22;54673;52.262;6.830;2024-03-02T02:01:32;8.00;99.90
67870;DHT22;54673;52.262;6.830;2024-03-02T02:03:58;7.10;99.90
67870;DHT22;54673;52.262;6.830;2024-03-02T02:06:23;7.10;99.90
67870;DHT22;54673;52.262;6.830;2024-03-02T02:08:49;7.10;99.90
67870;DHT22;54673;52.262;6.830;2024-03-02T02:11:16;7.00;99.90
67870;DHT22;54673;52.262;6.830;2024-03-02T02:13:41;7.60;99.90
67870;DHT22;54673;52.262;6.830;2024-03-02T02:16:08;8.20;99.90
67870;DHT22;54673;52.262;6.830;2024-03-02T02:18:34;7.00;99.90
67870;DHT22;54673;52.262;6.830;2024-03-02T02:21:00;7.10;99.90
67870;DHT22;54673;52.262;6.830;2024-03-02T02:23:26;7.00;99.90
67870;DHT22;54673;52.262;6.830;2024-03-02T02:25:51;7.70;99.90
67870;DHT22;54673;52.262;6.830;2024-03-02T02:28:17;7.00;99.90
67870;DHT22;54673;52.262;6.830;2024-03-02T02:30:42;7.00;99.90
67870;DHT22;54673;52.262;6.830;2024-03-02T02:33:08;7.00;99.90
67870;DHT22;54673;52.262;6.830;2024-03-02T02:35:34;7.00;99.90
67870;DHT22;54673;52.262;6.830;2024-03-02T02:38:00;6.50;99.90
67870;DHT22;54673;52.262;6.830;2024-03-02T02:40:26;7.00;99.90
67870;DHT22;54673;52.262;6.830;2024-03-02T02:42:54;7.00;99.90
67870;DHT22;54673;52.262;6.830;2024-03-02T02:45:20;7.00;99.90
67870;DHT22;54673;52.262;6.830;2024-03-02T02:47:45;7.00;99.90
67870;DHT22;54673;52.262;6.830;2024-03-02T02:50:11;7.00;99.90
67870;DHT22;54673;52.262;6.830;2024-03-02T02:52:38;7.20;99.90
67870;DHT22;54673;52.262;6.830;2024-03-02T02:55:07;7.00;99.90
67870;DHT22;54673;52.262;6.830;2024-03-02T02:57:33;7.00;99.90
67870;DHT22;54673;52.262;6.830;2024-03-02T03:00:07;7.00;99.90
67870;DHT22;54673;52.262;6.830;2024-03-02T03:02:39;7.00;99.90
67870;DHT22;54673;52.262;6.830;2024-03-02T03:05:06;7.00;99.90
67870;DHT22;54673;52.262;6.830;2024-03-02T03:07:32;7.00;99.90
67870;DHT22;54673;52.262;6.830;2024-03-02T03:09:59;7.00;99.90
67870;DHT22;54673;52.262;6.830;2024-03-02T03:12:25;8.70;99.90
67870;DHT22;54673;52.262;6.830;2024-03-02T03:14:50;7.00;99.90
67870;DHT22;54673;52.262;6.830;2024-03-02T03:17:16;8.30;99.90
67870;DHT22;54673;52.262;6.830;2024-03-02T03:19:42;7.30;99.90
67870;DHT22;54673;52.262;6.830;2024-03-02T03:22:08;7.00;99.90
67870;DHT22;54673;52.262;6.830;2024-03-02T03:24:33;7.30;99.90
67870;DHT22;54673;52.262;6.830;2024-03-02T03:26:59;7.00;99.90
67870;DHT22;54673;52.262;6.830;2024-03-02T03:29:25;7.00;99.90
67870;DHT22;54673;52.262;6.830;2024-03-02T03:31:50;7.00;99.90
67870;DHT22;54673;52.262;6.830;2024-03-02T03:34:16;7.00;99.90
67870;DHT22;54673;52.262;6.830;2024-03-02T03:36:42;7.00;99.90
67870;DHT22;54673;52.262;6.830;2024-03-02T03:39:08;7.00;99.90
67870;DHT22;54673;52.262;6.830;2024-03-02T03:41:33;7.00;99.90
67870;DHT22;54673;52.262;6.830;2024-03-02T03:43:59;7.40;99.90
67870;DHT22;54673;52.262;6.830;2024-03-02T03:46:24;7.00;99.90
67870;DHT22;54673;52.262;6.830;2024-03-02T03:48:50;7.00;99.90
67870;DHT22;54673;52.262;6.830;2024-03-02T03:51:16;7.50;99.90
67870;DHT22;54673;52.262;6.830;2024-03-02T03:53:41;7.00;99.90
67870;DHT22;54673;52.262;6.830;2024-03-02T03:56:07;7.00;99.90
67870;DHT22;54673;52.262;6.830;2024-03-02T03:58:32;7.00;99.90
67870;DHT22;54673;52.262;6.830;2024-03-02T04:00:58;7.00;99.90
67870;DHT22;54673;52.262;6.830;2024-03-02T04:03:24;7.00;99.90
67870;DHT22;54673;52.262;6.830;2024-03-02T04:05:49;7.00;99.90
67870;DHT22;54673;52.262;6.830;2024-03-02T04:08:15;7.00;99.90
67870;DHT22;54673;52.262;6.830;2024-03-02T04:10:41;7.00;99.90
67870;DHT22;54673;52.262;6.830;2024-03-02T04:13:07;7.00;99.90
67870;DHT22;54673;52.262;6.830;2024-03-02T04:15:33;7.10;99.90
67870;DHT22;54673;52.262;6.830;2024-03-02T04:17:58;6.90;99.90
67870;DHT22;54673;52.262;6.830;2024-03-02T04:20:24;6.90;99.90
67870;DHT22;54673;52.262;6.830;2024-03-02T04:22:50;6.90;99.90
67870;DHT22;54673;52.262;6.830;2024-03-02T04:25:16;6.90;99.90
67870;DHT22;54673;52.262;6.830;2024-03-02T04:27:41;6.90;99.90
67870;DHT22;54673;52.262;6.830;2024-03-02T04:30:07;6.90;99.90
67870;DHT22;54673;52.262;6.830;2024-03-02T04:32:33;6.90;99.90
67870;DHT22;54673;52.262;6.830;2024-03-02T04:34:59;6.90;99.90
67870;DHT22;54673;52.262;6.830;2024-03-02T04:37:24;7.70;99.90
67870;DHT22;54673;52.262;6.830;2024-03-02T04:39:50;6.90;99.90
67870;DHT22;54673;52.262;6.830;2024-03-02T04:42:15;6.90;99.90
67870;DHT22;54673;52.262;6.830;2024-03-02T04:44:41;7.80;99.90
67870;DHT22;54673;52.262;6.830;2024-03-02T04:47:06;7.10;99.90
67870;DHT22;54673;52.262;6.830;2024-03-02T04:49:32;6.80;99.90
67870;DHT22;54673;52.262;6.830;2024-03-02T04:51:57;6.80;99.90
67870;DHT22;54673;52.262;6.830;2024-03-02T04:54:23;6.80;99.90
67870;DHT22;54673;52.262;6.830;2024-03-02T04:56:48;6.80;99.90
67870;DHT22;54673;52.262;6.830;2024-03-02T04:59:17;6.80;99.90
67870;DHT22;54673;52.262;6.830;2024-03-02T05:01:44;7.80;99.90
67870;DHT22;54673;52.262;6.830;2024-03-02T05:04:10;6.80;99.90
67870;DHT22;54673;52.262;6.830;2024-03-02T05:06:40;6.80;99.90
67870;DHT22;54673;52.262;6.830;2024-03-02T05:09:06;6.80;99.90
67870;DHT22;54673;52.262;6.830;2024-03-02T05:11:32;6.80;99.90
67870;DHT22;54673;52.262;6.830;2024-03-02T05:14:04;6.80;99.90
67870;DHT22;54673;52.262;6.830;2024-03-02T05:16:36;6.80;99.90
67870;DHT22;54673;52.262;6.830;2024-03-02T05:19:05;6.70;99.90
67870;DHT22;54673;52.262;6.830;2024-03-02T05:21:34;6.70;99.90
67870;DHT22;54673;52.262;6.830;2024-03-02T05:24:00;7.00;99.90
67870;DHT22;54673;52.262;6.830;2024-03-02T05:26:25;6.70;99.90
67870;DHT22;54673;52.262;6.830;2024-03-02T05:28:51;6.70;99.90
67870;DHT22;54673;52.262;6.830;2024-03-02T05:31:17;6.90;99.90
67870;DHT22;54673;52.262;6.830;2024-03-02T05:33:43;6.70;99.90
67870;DHT22;54673;52.262;6.830;2024-03-02T05:36:09;6.70;99.90
67870;DHT22;54673;52.262;6.830;2024-03-02T05:38:35;6.70;99.90
67870;DHT22;54673;52.262;6.830;2024-03-02T05:41:01;6.70;99.90
67870;DHT22;54673;52.262;6.830;2024-03-02T05:43:26;6.90;99.90
67870;DHT22;54673;52.262;6.830;2024-03-02T05:45:52;6.70;99.90
67870;DHT22;54673;52.262;6.830;2024-03-02T05:48:17;6.70;99.90
67870;DHT22;54673;52.262;6.830;2024-03-02T05:50:43;6.70;99.90
67870;DHT22;54673;52.262;6.830;2024-03-02T05:53:09;6.70;99.90
67870;DHT22;54673;52.262;6.830;2024-03-02T05:55:34;6.70;99.90
67870;DHT22;54673;52.262;6.830;2024-03-02T05:58:00;6.70;99.90
67870;DHT22;54673;52.262;6.830;2024-03-02T06:00:48;6.70;99.90
67870;DHT22;54673;52.262;6.830;2024-03-02T06:03:13;6.70;99.90
67870;DHT22;54673;52.262;6.830;2024-03-02T06:05:39;6.70;99.90
67870;DHT22;54673;52.262;6.830;2024-03-02T06:08:06;6.70;99.90
67870;DHT22;54673;52.262;6.830;2024-03-02T06:10:32;6.70;99.90
67870;DHT22;54673;52.262;6.830;2024-03-02T06:12:58;6.70;99.90
67870;DHT22;54673;52.262;6.830;2024-03-02T06:15:24;6.70;99.90
67870;DHT22;54673;52.262;6.830;2024-03-02T06:17:50;6.70;99.90
67870;DHT22;54673;52.262;6.830;2024-03-02T06:20:15;6.70;99.90
67870;DHT22;54673;52.262;6.830;2024-03-02T06:22:41;6.70;99.90
67870;DHT22;54673;52.262;6.830;2024-03-02T06:25:07;6.60;99.90
67870;DHT22;54673;52.262;6.830;2024-03-02T06:27:32;6.70;99.90
67870;DHT22;54673;52.262;6.830;2024-03-02T06:29:58;6.60;99.90
67870;DHT22;54673;52.262;6.830;2024-03-02T06:32:23;7.10;99.90
67870;DHT22;54673;52.262;6.830;2024-03-02T06:34:50;6.60;99.90
67870;DHT22;54673;52.262;6.830;2024-03-02T06:37:16;6.60;99.90
67870;DHT22;54673;52.262;6.830;2024-03-02T06:39:41;6.60;99.90
67870;DHT22;54673;52.262;6.830;2024-03-02T06:42:07;6.60;99.90
67870;DHT22;54673;52.262;6.830;2024-03-02T06:44:32;6.60;99.90
67870;DHT22;54673;52.262;6.830;2024-03-02T06:46:59;6.60;99.90
67870;DHT22;54673;52.262;6.830;2024-03-02T06:49:24;6.60;99.90
67870;DHT22;54673;52.262;6.830;2024-03-02T06:51:50;6.60;99.90
67870;DHT22;54673;52.262;6.830;2024-03-02T06:54:15;6.60;99.90
67870;DHT22;54673;52.262;6.830;2024-03-02T06:56:41;6.60;99.90
67870;DHT22;54673;52.262;6.830;2024-03-02T06:59:06;6.60;99.90
67870;DHT22;54673;52.262;6.830;2024-03-02T07:01:32;6.60;99.90
67870;DHT22;54673;52.262;6.830;2024-03-02T07:03:58;6.60;99.90
67870;DHT22;54673;52.262;6.830;2024-03-02T07:06:23;6.60;99.90
67870;DHT22;54673;52.262;6.830;2024-03-02T07:08:49;6.60;99.90
67870;DHT22;54673;52.262;6.830;2024-03-02T07:11:14;6.60;99.90
67870;DHT22;54673;52.262;6.830;2024-03-02T07:13:40;6.60;99.90
67870;DHT22;54673;52.262;6.830;2024-03-02T07:16:06;6.60;99.90
67870;DHT22;54673;52.262;6.830;2024-03-02T07:18:49;6.50;99.90
67870;DHT22;54673;52.262;6.830;2024-03-02T07:21:17;6.60;99.90
67870;DHT22;54673;52.262;6.830;2024-03-02T07:23:42;6.50;99.90
67870;DHT22;54673;52.262;6.830;2024-03-02T07:26:08;6.50;99.90
67870;DHT22;54673;52.262;6.830;2024-03-02T07:28:34;6.60;99.90
67870;DHT22;54673;52.262;6.830;2024-03-02T07:31:04;6.50;99.90
67870;DHT22;54673;52.262;6.830;2024-03-02T07:33:30;6.60;99.90
67870;DHT22;54673;52.262;6.830;2024-03-02T07:35:56;6.50;99.90
67870;DHT22;54673;52.262;6.830;2024-03-02T07:38:22;6.50;99.90
67870;DHT22;54673;52.262;6.830;2024-03-02T07:40:49;6.50;99.90
67870;DHT22;54673;52.262;6.830;2024-03-02T07:43:17;6.50;99.90
67870;DHT22;54673;52.262;6.830;2024-03-02T07:45:44;6.50;99.90
67870;DHT22;54673;52.262;6.830;2024-03-02T07:48:10;6.50;99.90
67870;DHT22;54673;52.262;6.830;2024-03-02T07:50:36;6.50;99.90
67870;DHT22;54673;52.262;6.830;2024-03-02T07:53:03;6.50;99.90
67870;DHT22;54673;52.262;6.830;2024-03-02T07:55:29;6.50;99.90
67870;DHT22;54673;52.262;6.830;2024-03-02T07:57:56;6.50;99.90
67870;DHT22;54673;52.262;6.830;2024-03-02T08:00:22;6.50;99.90
67870;DHT22;54673;52.262;6.830;2024-03-02T08:02:48;6.50;99.90
67870;DHT22;54673;52.262;6.830;2024-03-02T08:05:14;7.30;99.90
67870;DHT22;54673;52.262;6.830;2024-03-02T08:07:40;6.50;99.90
67870;DHT22;54673;52.262;6.830;2024-03-02T08:10:07;6.50;99.90
67870;DHT22;54673;52.262;6.830;2024-03-02T08:12:32;6.50;99.90
67870;DHT22;54673;52.262;6.830;2024-03-02T08:14:58;6.50;99.90
67870;DHT22;54673;52.262;6.830;2024-03-02T08:17:23;6.50;99.90
67870;DHT22;54673;52.262;6.830;2024-03-02T08:19:49;6.50;99.90
67870;DHT22;54673;52.262;6.830;2024-03-02T08:22:15;6.50;99.90
67870;DHT22;54673;52.262;6.830;2024-03-02T08:24:41;6.50;99.90
67870;DHT22;54673;52.262;6.830;2024-03-02T08:27:06;6.50;99.90
67870;DHT22;54673;52.262;6.830;2024-03-02T08:29:32;6.60;99.90
67870;DHT22;54673;52.262;6.830;2024-03-02T08:31:58;6.60;99.90
67870;DHT22;54673;52.262;6.830;2024-03-02T08:34:23;6.60;99.90
67870;DHT22;54673;52.262;6.830;2024-03-02T08:36:49;6.60;99.90
67870;DHT22;54673;52.262;6.830;2024-03-02T08:39:15;6.50;99.90
67870;DHT22;54673;52.262;6.830;2024-03-02T08:41:42;6.60;99.90
67870;DHT22;54673;52.262;6.830;2024-03-02T08:44:08;6.60;99.90
67870;DHT22;54673;52.262;6.830;2024-03-02T08:46:34;6.60;99.90
67870;DHT22;54673;52.262;6.830;2024-03-02T08:49:00;6.60;99.90
67870;DHT22;54673;52.262;6.830;2024-03-02T08:51:25;6.60;99.90
67870;DHT22;54673;52.262;6.830;2024-03-02T08:53:51;6.60;99.90
67870;DHT22;54673;52.262;6.830;2024-03-02T08:56:17;6.60;99.90
67870;DHT22;54673;52.262;6.830;2024-03-02T08:58:43;6.60;99.90
67870;DHT22;54673;52.262;6.830;2024-03-02T09:01:10;6.60;99.90
67870;DHT22;54673;52.262;6.830;2024-03-02T09:03:35;6.60;99.90
67870;DHT22;54673;52.262;6.830;2024-03-02T09:06:02;6.70;99.90
67870;DHT22;54673;52.262;6.830;2024-03-02T09:08:28;6.70;99.90
67870;DHT22;54673;52.262;6.830;2024-03-02T09:10:54;6.70;99.90
67870;DHT22;54673;52.262;6.830;2024-03-02T09:13:21;6.80;99.90
67870;DHT22;54673;52.262;6.830;2024-03-02T09:15:47;7.80;99.90
67870;DHT22;54673;52.262;6.830;2024-03-02T09:18:13;6.80;99.90
67870;DHT22;54673;52.262;6.830;2024-03-02T09:20:39;6.90;99.90
67870;DHT22;54673;52.262;6.830;2024-03-02T09:23:04;6.90;99.90
67870;DHT22;54673;52.262;6.830;2024-03-02T09:25:30;6.90;99.90
67870;DHT22;54673;52.262;6.830;2024-03-02T09:27:55;7.00;99.90
67870;DHT22;54673;52.262;6.830;2024-03-02T09:30:21;7.10;99.90
67870;DHT22;54673;52.262;6.830;2024-03-02T09:32:46;7.10;99.90
67870;DHT22;54673;52.262;6.830;2024-03-02T09:35:12;7.20;99.90
67870;DHT22;54673;52.262;6.830;2024-03-02T09:37:37;7.30;99.90
67870;DHT22;54673;52.262;6.830;2024-03-02T09:40:04;7.30;99.90
67870;DHT22;54673;52.262;6.830;2024-03-02T09:42:29;7.40;99.90
67870;DHT22;54673;52.262;6.830;2024-03-02T09:44:55;7.50;99.90
67870;DHT22;54673;52.262;6.830;2024-03-02T09:47:22;7.60;99.90
67870;DHT22;54673;52.262;6.830;2024-03-02T09:49:47;7.70;99.90
67870;DHT22;54673;52.262;6.830;2024-03-02T09:52:14;7.80;99.90
67870;DHT22;54673;52.262;6.830;2024-03-02T09:54:40;7.90;99.90
67870;DHT22;54673;52.262;6.830;2024-03-02T09:57:06;8.00;99.90
67870;DHT22;54673;52.262;6.830;2024-03-02T09:59:32;8.10;99.90
67870;DHT22;54673;52.262;6.830;2024-03-02T10:02:02;8.20;99.90
67870;DHT22;54673;52.262;6.830;2024-03-02T10:04:29;8.90;99.90
67870;DHT22;54673;52.262;6.830;2024-03-02T10:07:15;9.00;99.90
67870;DHT22;54673;52.262;6.830;2024-03-02T10:09:42;8.50;99.90
67870;DHT22;54673;52.262;6.830;2024-03-02T10:12:09;8.70;99.90
67870;DHT22;54673;52.262;6.830;2024-03-02T10:14:35;8.80;99.90
67870;DHT22;54673;52.262;6.830;2024-03-02T10:17:06;9.30;99.90
67870;DHT22;54673;52.262;6.830;2024-03-02T10:19:33;9.00;99.90
67870;DHT22;54673;52.262;6.830;2024-03-02T10:22:01;9.10;99.90
67870;DHT22;54673;52.262;6.830;2024-03-02T10:24:34;9.20;99.90
67870;DHT22;54673;52.262;6.830;2024-03-02T10:27:01;9.40;99.90
67870;DHT22;54673;52.262;6.830;2024-03-02T10:29:29;9.40;99.90
67870;DHT22;54673;52.262;6.830;2024-03-02T10:31:55;9.50;99.90
67870;DHT22;54673;52.262;6.830;2024-03-02T10:34:21;9.60;99.90
67870;DHT22;54673;52.262;6.830;2024-03-02T10:36:47;10.20;99.90
67870;DHT22;54673;52.262;6.830;2024-03-02T10:39:14;9.80;99.90
67870;DHT22;54673;52.262;6.830;2024-03-02T10:41:40;9.90;99.90
67870;DHT22;54673;52.262;6.830;2024-03-02T10:44:07;10.40;99.90
67870;DHT22;54673;52.262;6.830;2024-03-02T10:46:36;10.10;99.90
67870;DHT22;54673;52.262;6.830;2024-03-02T10:49:03;10.40;99.90
67870;DHT22;54673;52.262;6.830;2024-03-02T10:51:30;11.40;99.90
67870;DHT22;54673;52.262;6.830;2024-03-02T10:54:02;10.80;99.90
67870;DHT22;54673;52.262;6.830;2024-03-02T10:56:31;10.80;99.90
67870;DHT22;54673;52.262;6.830;2024-03-02T10:59:12;10.80;99.90
67870;DHT22;54673;52.262;6.830;2024-03-02T11:01:43;11.00;99.90
67870;DHT22;54673;52.262;6.830;2024-03-02T11:04:09;11.00;99.90
67870;DHT22;54673;52.262;6.830;2024-03-02T11:06:38;11.10;99.90
67870;DHT22;54673;52.262;6.830;2024-03-02T11:09:07;12.20;99.90
67870;DHT22;54673;52.262;6.830;2024-03-02T11:11:40;11.30;99.90
67870;DHT22;54673;52.262;6.830;2024-03-02T11:14:09;12.10;99.90
67870;DHT22;54673;52.262;6.830;2024-03-02T11:16:38;11.60;99.90
67870;DHT22;54673;52.262;6.830;2024-03-02T11:19:10;11.60;99.90
67870;DHT22;54673;52.262;6.830;2024-03-02T11:21:37;11.70;99.90
67870;DHT22;54673;52.262;6.830;2024-03-02T11:26:47;11.90;99.90
67870;DHT22;54673;52.262;6.830;2024-03-02T11:32:00;12.10;99.90
67870;DHT22;54673;52.262;6.830;2024-03-02T11:34:36;13.00;99.90
67870;DHT22;54673;52.262;6.830;2024-03-02T11:37:02;12.30;99.90
67870;DHT22;54673;52.262;6.830;2024-03-02T11:39:28;12.50;99.90
67870;DHT22;54673;52.262;6.830;2024-03-02T11:41:56;12.80;99.90
67870;DHT22;54673;52.262;6.830;2024-03-02T11:44:21;12.70;99.90
67870;DHT22;54673;52.262;6.830;2024-03-02T11:46:56;12.80;99.90
67870;DHT22;54673;52.262;6.830;2024-03-02T11:49:45;13.40;99.90
67870;DHT22;54673;52.262;6.830;2024-03-02T11:52:15;12.80;99.90
67870;DHT22;54673;52.262;6.830;2024-03-02T11:54:46;12.90;99.90
67870;DHT22;54673;52.262;6.830;2024-03-02T11:57:16;13.00;99.90
67870;DHT22;54673;52.262;6.830;2024-03-02T11:59:42;13.00;99.90
67870;DHT22;54673;52.262;6.830;2024-03-02T12:02:15;13.10;99.90
67870;DHT22;54673;52.262;6.830;2024-03-02T12:04:42;13.70;99.90
67870;DHT22;54673;52.262;6.830;2024-03-02T12:07:09;13.20;99.90
67870;DHT22;54673;52.262;6.830;2024-03-02T12:09:34;13.10;99.90
67870;DHT22;54673;52.262;6.830;2024-03-02T12:12:08;13.60;99.90
67870;DHT22;54673;52.262;6.830;2024-03-02T12:14:36;13.50;99.90
67870;DHT22;54673;52.262;6.830;2024-03-02T12:17:02;13.40;99.90
67870;DHT22;54673;52.262;6.830;2024-03-02T12:19:29;13.50;99.90
67870;DHT22;54673;52.262;6.830;2024-03-02T12:21:56;13.50;99.90
67870;DHT22;54673;52.262;6.830;2024-03-02T12:24:22;13.70;99.90
67870;DHT22;54673;52.262;6.830;2024-03-02T12:26:51;14.00;99.90
67870;DHT22;54673;52.262;6.830;2024-03-02T12:29:19;14.00;99.90
67870;DHT22;54673;52.262;6.830;2024-03-02T12:31:45;14.80;99.90
67870;DHT22;54673;52.262;6.830;2024-03-02T12:34:17;13.80;99.90
67870;DHT22;54673;52.262;6.830;2024-03-02T12:36:44;13.60;99.90
67870;DHT22;54673;52.262;6.830;2024-03-02T12:39:13;13.80;99.90
67870;DHT22;54673;52.262;6.830;2024-03-02T12:41:39;13.80;99.90
67870;DHT22;54673;52.262;6.830;2024-03-02T12:44:05;13.70;99.90
67870;DHT22;54673;52.262;6.830;2024-03-02T12:46:34;13.80;99.90
67870;DHT22;54673;52.262;6.830;2024-03-02T12:49:10;14.00;99.90
67870;DHT22;54673;52.262;6.830;2024-03-02T12:51:37;13.80;99.90
67870;DHT22;54673;52.262;6.830;2024-03-02T12:54:11;14.00;99.90
67870;DHT22;54673;52.262;6.830;2024-03-02T12:56:37;14.00;99.90
67870;DHT22;54673;52.262;6.830;2024-03-02T12:59:04;14.10;99.90
67870;DHT22;54673;52.262;6.830;2024-03-02T13:01:30;14.20;99.90
67870;DHT22;54673;52.262;6.830;2024-03-02T13:03:58;14.80;99.90
67870;DHT22;54673;52.262;6.830;2024-03-02T13:06:24;14.30;99.90
67870;DHT22;54673;52.262;6.830;2024-03-02T13:08:53;15.40;99.90
67870;DHT22;54673;52.262;6.830;2024-03-02T13:11:19;14.20;99.90
67870;DHT22;54673;52.262;6.830;2024-03-02T13:13:45;15.10;99.90
67870;DHT22;54673;52.262;6.830;2024-03-02T13:16:11;14.30;99.90
67870;DHT22;54673;52.262;6.830;2024-03-02T13:18:40;14.40;99.90
67870;DHT22;54673;52.262;6.830;2024-03-02T13:21:10;14.70;99.90
67870;DHT22;54673;52.262;6.830;2024-03-02T13:23:35;14.40;99.90
67870;DHT22;54673;52.262;6.830;2024-03-02T13:26:01;15.40;99.90
67870;DHT22;54673;52.262;6.830;2024-03-02T13:28:27;14.40;99.90
67870;DHT22;54673;52.262;6.830;2024-03-02T13:30:53;14.40;99.90
67870;DHT22;54673;52.262;6.830;2024-03-02T13:33:18;14.50;99.90
67870;DHT22;54673;52.262;6.830;2024-03-02T13:35:51;15.40;99.90
67870;DHT22;54673;52.262;6.830;2024-03-02T13:38:20;15.00;99.90
67870;DHT22;54673;52.262;6.830;2024-03-02T13:40:46;14.50;99.90
67870;DHT22;54673;52.262;6.830;2024-03-02T13:43:13;14.80;99.90
67870;DHT22;54673;52.262;6.830;2024-03-02T13:45:39;14.50;99.90
67870;DHT22;54673;52.262;6.830;2024-03-02T13:48:05;14.50;99.90
67870;DHT22;54673;52.262;6.830;2024-03-02T13:50:31;14.50;99.90
67870;DHT22;54673;52.262;6.830;2024-03-02T13:52:56;14.50;99.90
67870;DHT22;54673;52.262;6.830;2024-03-02T13:55:22;14.50;99.90
67870;DHT22;54673;52.262;6.830;2024-03-02T13:57:48;14.50;99.90
67870;DHT22;54673;52.262;6.830;2024-03-02T14:00:16;14.50;99.90
67870;DHT22;54673;52.262;6.830;2024-03-02T14:02:42;14.50;99.90
67870;DHT22;54673;52.262;6.830;2024-03-02T14:05:08;14.50;99.90
67870;DHT22;54673;52.262;6.830;2024-03-02T14:07:41;14.50;99.90
67870;DHT22;54673;52.262;6.830;2024-03-02T14:10:07;15.10;99.90
67870;DHT22;54673;52.262;6.830;2024-03-02T14:12:33;15.80;99.90
67870;DHT22;54673;52.262;6.830;2024-03-02T14:14:58;14.50;99.90
67870;DHT22;54673;52.262;6.830;2024-03-02T14:17:25;14.40;99.90
67870;DHT22;54673;52.262;6.830;2024-03-02T14:19:50;14.50;99.90
67870;DHT22;54673;52.262;6.830;2024-03-02T14:22:17;14.50;99.90
67870;DHT22;54673;52.262;6.830;2024-03-02T14:24:43;14.50;99.90
67870;DHT22;54673;52.262;6.830;2024-03-02T14:27:09;14.50;99.90
67870;DHT22;54673;52.262;6.830;2024-03-02T14:29:34;14.50;99.90
67870;DHT22;54673;52.262;6.830;2024-03-02T14:32:05;14.50;99.90
67870;DHT22;54673;52.262;6.830;2024-03-02T14:34:31;14.40;99.90
67870;DHT22;54673;52.262;6.830;2024-03-02T14:36:57;14.40;99.90
67870;DHT22;54673;52.262;6.830;2024-03-02T14:39:22;14.40;99.90
67870;DHT22;54673;52.262;6.830;2024-03-02T14:41:48;14.50;99.90
67870;DHT22;54673;52.262;6.830;2024-03-02T14:44:14;14.40;99.90
67870;DHT22;54673;52.262;6.830;2024-03-02T14:46:40;14.40;99.90
67870;DHT22;54673;52.262;6.830;2024-03-02T14:49:06;15.40;99.90
67870;DHT22;54673;52.262;6.830;2024-03-02T14:51:33;14.40;99.90
67870;DHT22;54673;52.262;6.830;2024-03-02T14:53:58;15.30;99.90
67870;DHT22;54673;52.262;6.830;2024-03-02T14:56:24;14.30;99.90
67870;DHT22;54673;52.262;6.830;2024-03-02T14:58:49;15.10;99.90
67870;DHT22;54673;52.262;6.830;2024-03-02T15:01:16;14.40;99.90
67870;DHT22;54673;52.262;6.830;2024-03-02T15:03:43;14.30;99.90
67870;DHT22;54673;52.262;6.830;2024-03-02T15:06:09;15.00;99.90
67870;DHT22;54673;52.262;6.830;2024-03-02T15:08:35;14.40;99.90
67870;DHT22;54673;52.262;6.830;2024-03-02T15:11:01;14.40;99.90
67870;DHT22;54673;52.262;6.830;2024-03-02T15:13:27;15.30;99.90
67870;DHT22;54673;52.262;6.830;2024-03-02T15:15:53;14.30;99.90
67870;DHT22;54673;52.262;6.830;2024-03-02T15:18:18;14.40;99.90
67870;DHT22;54673;52.262;6.830;2024-03-02T15:20:44;14.30;99.90
67870;DHT22;54673;52.262;6.830;2024-03-02T15:23:10;14.40;99.90
67870;DHT22;54673;52.262;6.830;2024-03-02T15:25:35;14.30;99.90
67870;DHT22;54673;52.262;6.830;2024-03-02T15:28:01;14.30;99.90
67870;DHT22;54673;52.262;6.830;2024-03-02T15:30:27;14.60;99.90
67870;DHT22;54673;52.262;6.830;2024-03-02T15:32:53;14.30;99.90
67870;DHT22;54673;52.262;6.830;2024-03-02T15:35:18;14.30;99.90
67870;DHT22;54673;52.262;6.830;2024-03-02T15:37:44;15.00;99.90
67870;DHT22;54673;52.262;6.830;2024-03-02T15:40:09;14.60;99.90
67870;DHT22;54673;52.262;6.830;2024-03-02T15:42:36;14.30;99.90
67870;DHT22;54673;52.262;6.830;2024-03-02T15:45:02;14.30;99.90
67870;DHT22;54673;52.262;6.830;2024-03-02T15:47:27;14.20;99.90
67870;DHT22;54673;52.262;6.830;2024-03-02T15:49:53;14.20;99.90
67870;DHT22;54673;52.262;6.830;2024-03-02T15:52:19;14.00;99.90